Accueil
METAR-TAF:

METAR-TAF

Aéroports :

Longyearbyen, Norvège

Aéroport de Longyearbyen

latitude: 78-15N, longitude: 015-28E, altitude: 2 m

Observation

Le bulletin a été fait il y a 46 minutes, à 23:50 UTC
Vent 10 kt de nord-est avec des rafales jusqu'à 21 kt, variant entre nord et est
Température 0°C
Humidité 64%
Pression 993 hPa
Visibilité 10 km ou plus
Nuages fragmentés à une hauteur de 4000 ft

METAR: ENSB 132350Z 04010G21KT 010V080 9999 BKN040 M00/M06 Q0993 RMK WIND 1400FT 06018KT

Heure: 01:36 (00:36 UTC)

Prévision

Prévision valable du 14 à 00 UTC au 14 à 24 UTC
Vent 12 kt de est/sud-est
Visibilité 10 km ou plus
Nuages fragmentés à une hauteur de 2500 ft
Temporairement
du 14 à 00 UTC au 14 à 15 UTC
Vent 20 kt de est/nord-est avec des rafales jusqu'à 30 kt

TAF: ENSB 1400/1424 12012KT 9999 BKN025 TEMPO 1400/1415 07020G30KT

Observations et prévisions météorologiques de plus de 4000 aéroports (messages METAR et TAF).

Les stations disponibles sont représentées par des disques jaunes et rouges sur la carte.

Passer la souris dessus pour voir le nom de la station.

Cliquer dessus pour voir les observations et prévisions météorologiques.

Pour changer de carte: cliquez sur les boutons verts avec une croix noire pour zoomer, sur le bouton vert avec un tiret pour effectuer un zoom arrière, ou sur les flèches vertes pour les cartes adjacentes.


METAR-TAF: